sensor_id;sensor_type;location;lat;lon;timestamp;temperature;humidity
34989;DHT22;21192;40.182;44.516;2024-02-23T00:00:54;11.70;76.30
34989;DHT22;21192;40.182;44.516;2024-02-23T00:03:20;11.60;76.10
34989;DHT22;21192;40.182;44.516;2024-02-23T00:05:45;11.60;76.00
34989;DHT22;21192;40.182;44.516;2024-02-23T00:08:11;11.60;75.90
34989;DHT22;21192;40.182;44.516;2024-02-23T00:10:37;11.70;75.90
34989;DHT22;21192;40.182;44.516;2024-02-23T00:13:03;11.70;75.90
34989;DHT22;21192;40.182;44.516;2024-02-23T00:15:29;11.70;76.20
34989;DHT22;21192;40.182;44.516;2024-02-23T00:17:55;11.70;76.40
34989;DHT22;21192;40.182;44.516;2024-02-23T00:20:21;11.70;76.90
34989;DHT22;21192;40.182;44.516;2024-02-23T00:22:48;11.80;77.00
34989;DHT22;21192;40.182;44.516;2024-02-23T00:25:13;11.80;77.20
34989;DHT22;21192;40.182;44.516;2024-02-23T00:27:39;11.80;77.30
34989;DHT22;21192;40.182;44.516;2024-02-23T00:30:07;11.70;77.40
34989;DHT22;21192;40.182;44.516;2024-02-23T00:32:33;11.70;77.60
34989;DHT22;21192;40.182;44.516;2024-02-23T00:34:59;11.80;77.40
34989;DHT22;21192;40.182;44.516;2024-02-23T00:37:25;11.80;77.00
34989;DHT22;21192;40.182;44.516;2024-02-23T00:39:51;11.90;76.70
34989;DHT22;21192;40.182;44.516;2024-02-23T00:42:16;11.90;76.40
34989;DHT22;21192;40.182;44.516;2024-02-23T00:44:42;11.90;76.50
34989;DHT22;21192;40.182;44.516;2024-02-23T00:47:08;11.80;76.80
34989;DHT22;21192;40.182;44.516;2024-02-23T00:49:35;11.70;77.30
34989;DHT22;21192;40.182;44.516;2024-02-23T00:52:00;11.70;77.60
34989;DHT22;21192;40.182;44.516;2024-02-23T00:54:26;11.70;77.80
34989;DHT22;21192;40.182;44.516;2024-02-23T00:56:52;11.70;77.80
34989;DHT22;21192;40.182;44.516;2024-02-23T00:59:18;11.80;77.50
34989;DHT22;21192;40.182;44.516;2024-02-23T01:01:44;11.80;76.90
34989;DHT22;21192;40.182;44.516;2024-02-23T01:04:10;11.80;76.50
34989;DHT22;21192;40.182;44.516;2024-02-23T01:06:36;11.80;76.50
34989;DHT22;21192;40.182;44.516;2024-02-23T01:09:02;11.70;76.70
34989;DHT22;21192;40.182;44.516;2024-02-23T01:11:30;11.60;77.10
34989;DHT22;21192;40.182;44.516;2024-02-23T01:13:55;11.50;77.10
34989;DHT22;21192;40.182;44.516;2024-02-23T01:16:22;11.40;77.20
34989;DHT22;21192;40.182;44.516;2024-02-23T01:18:48;11.40;77.40
34989;DHT22;21192;40.182;44.516;2024-02-23T01:21:14;11.40;77.30
34989;DHT22;21192;40.182;44.516;2024-02-23T01:23:39;11.30;77.30
34989;DHT22;21192;40.182;44.516;2024-02-23T01:26:05;11.40;77.30
34989;DHT22;21192;40.182;44.516;2024-02-23T01:28:31;11.40;77.20
34989;DHT22;21192;40.182;44.516;2024-02-23T01:30:57;11.40;77.10
34989;DHT22;21192;40.182;44.516;2024-02-23T01:33:23;11.30;76.70
34989;DHT22;21192;40.182;44.516;2024-02-23T01:35:49;11.10;76.70
34989;DHT22;21192;40.182;44.516;2024-02-23T01:38:16;10.80;78.40
34989;DHT22;21192;40.182;44.516;2024-02-23T01:40:46;10.50;79.50
34989;DHT22;21192;40.182;44.516;2024-02-23T01:43:13;10.30;81.10
34989;DHT22;21192;40.182;44.516;2024-02-23T01:45:39;10.20;81.70
34989;DHT22;21192;40.182;44.516;2024-02-23T01:48:06;10.20;82.10
34989;DHT22;21192;40.182;44.516;2024-02-23T01:50:32;10.10;82.50
34989;DHT22;21192;40.182;44.516;2024-02-23T01:53:01;10.10;83.10
34989;DHT22;21192;40.182;44.516;2024-02-23T01:55:28;10.00;83.30
34989;DHT22;21192;40.182;44.516;2024-02-23T01:57:56;9.90;83.70
34989;DHT22;21192;40.182;44.516;2024-02-23T02:00:22;9.90;84.10
34989;DHT22;21192;40.182;44.516;2024-02-23T02:02:48;9.90;84.40
34989;DHT22;21192;40.182;44.516;2024-02-23T02:05:14;9.90;84.60
34989;DHT22;21192;40.182;44.516;2024-02-23T02:07:43;9.90;85.10
34989;DHT22;21192;40.182;44.516;2024-02-23T02:10:10;9.80;85.80
34989;DHT22;21192;40.182;44.516;2024-02-23T02:12:36;9.70;86.20
34989;DHT22;21192;40.182;44.516;2024-02-23T02:15:03;9.70;86.50
34989;DHT22;21192;40.182;44.516;2024-02-23T02:17:29;9.70;86.60
34989;DHT22;21192;40.182;44.516;2024-02-23T02:19:58;9.70;86.70
34989;DHT22;21192;40.182;44.516;2024-02-23T02:22:24;9.80;86.60
34989;DHT22;21192;40.182;44.516;2024-02-23T02:24:50;9.80;86.60
34989;DHT22;21192;40.182;44.516;2024-02-23T02:27:16;9.70;86.70
34989;DHT22;21192;40.182;44.516;2024-02-23T02:29:42;9.80;86.60
34989;DHT22;21192;40.182;44.516;2024-02-23T02:32:08;9.70;86.70
34989;DHT22;21192;40.182;44.516;2024-02-23T02:34:34;9.60;87.00
34989;DHT22;21192;40.182;44.516;2024-02-23T02:37:00;9.70;87.10
34989;DHT22;21192;40.182;44.516;2024-02-23T02:39:27;9.70;86.80
34989;DHT22;21192;40.182;44.516;2024-02-23T02:41:53;9.70;86.80
34989;DHT22;21192;40.182;44.516;2024-02-23T02:44:19;9.70;86.80
34989;DHT22;21192;40.182;44.516;2024-02-23T02:46:44;9.80;86.80
34989;DHT22;21192;40.182;44.516;2024-02-23T02:49:11;9.80;86.60
34989;DHT22;21192;40.182;44.516;2024-02-23T02:51:37;9.80;86.40
34989;DHT22;21192;40.182;44.516;2024-02-23T02:54:04;9.90;86.20
34989;DHT22;21192;40.182;44.516;2024-02-23T02:56:30;9.90;85.80
34989;DHT22;21192;40.182;44.516;2024-02-23T02:58:56;9.90;85.70
34989;DHT22;21192;40.182;44.516;2024-02-23T03:01:22;10.10;85.50
34989;DHT22;21192;40.182;44.516;2024-02-23T03:03:48;10.10;84.90
34989;DHT22;21192;40.182;44.516;2024-02-23T03:06:14;10.20;84.80
34989;DHT22;21192;40.182;44.516;2024-02-23T03:08:42;10.40;84.40
34989;DHT22;21192;40.182;44.516;2024-02-23T03:11:08;10.60;83.70
34989;DHT22;21192;40.182;44.516;2024-02-23T03:13:34;10.70;83.00
34989;DHT22;21192;40.182;44.516;2024-02-23T03:15:59;10.80;82.70
34989;DHT22;21192;40.182;44.516;2024-02-23T03:18:25;10.90;82.30
34989;DHT22;21192;40.182;44.516;2024-02-23T03:20:53;11.00;81.70
34989;DHT22;21192;40.182;44.516;2024-02-23T03:23:19;11.00;81.30
34989;DHT22;21192;40.182;44.516;2024-02-23T03:25:45;11.10;81.10
34989;DHT22;21192;40.182;44.516;2024-02-23T03:28:11;11.20;80.80
34989;DHT22;21192;40.182;44.516;2024-02-23T03:30:37;11.10;80.40
34989;DHT22;21192;40.182;44.516;2024-02-23T03:33:03;11.10;80.60
34989;DHT22;21192;40.182;44.516;2024-02-23T03:35:29;11.10;81.20
34989;DHT22;21192;40.182;44.516;2024-02-23T03:37:54;11.10;81.40
34989;DHT22;21192;40.182;44.516;2024-02-23T03:40:20;11.20;81.70
34989;DHT22;21192;40.182;44.516;2024-02-23T03:42:46;11.30;81.50
34989;DHT22;21192;40.182;44.516;2024-02-23T03:45:12;11.30;81.60
34989;DHT22;21192;40.182;44.516;2024-02-23T03:47:38;11.30;82.10
34989;DHT22;21192;40.182;44.516;2024-02-23T03:50:05;11.20;83.40
34989;DHT22;21192;40.182;44.516;2024-02-23T03:52:31;11.10;84.10
34989;DHT22;21192;40.182;44.516;2024-02-23T03:54:57;11.00;85.50
34989;DHT22;21192;40.182;44.516;2024-02-23T03:57:23;11.00;86.20
34989;DHT22;21192;40.182;44.516;2024-02-23T03:59:53;11.00;86.30
34989;DHT22;21192;40.182;44.516;2024-02-23T04:02:19;11.00;87.50
34989;DHT22;21192;40.182;44.516;2024-02-23T04:04:45;11.10;88.80
34989;DHT22;21192;40.182;44.516;2024-02-23T04:07:11;11.00;89.80
34989;DHT22;21192;40.182;44.516;2024-02-23T04:09:37;11.10;90.00
34989;DHT22;21192;40.182;44.516;2024-02-23T04:12:03;11.20;90.20
34989;DHT22;21192;40.182;44.516;2024-02-23T04:14:29;11.00;90.30
34989;DHT22;21192;40.182;44.516;2024-02-23T04:16:55;11.00;90.50
34989;DHT22;21192;40.182;44.516;2024-02-23T04:19:20;10.80;90.70
34989;DHT22;21192;40.182;44.516;2024-02-23T04:21:46;10.70;91.00
34989;DHT22;21192;40.182;44.516;2024-02-23T04:24:12;10.70;90.80
34989;DHT22;21192;40.182;44.516;2024-02-23T04:26:38;10.80;90.60
34989;DHT22;21192;40.182;44.516;2024-02-23T04:29:04;10.70;90.60
34989;DHT22;21192;40.182;44.516;2024-02-23T04:31:30;10.80;90.70
34989;DHT22;21192;40.182;44.516;2024-02-23T04:33:56;10.90;90.50
34989;DHT22;21192;40.182;44.516;2024-02-23T04:36:21;10.90;90.40
34989;DHT22;21192;40.182;44.516;2024-02-23T04:38:47;11.00;90.50
34989;DHT22;21192;40.182;44.516;2024-02-23T04:41:13;11.10;90.50
34989;DHT22;21192;40.182;44.516;2024-02-23T04:43:39;11.20;90.60
34989;DHT22;21192;40.182;44.516;2024-02-23T04:46:05;11.20;90.60
34989;DHT22;21192;40.182;44.516;2024-02-23T04:48:31;11.20;90.60
34989;DHT22;21192;40.182;44.516;2024-02-23T04:50:57;11.30;90.70
34989;DHT22;21192;40.182;44.516;2024-02-23T04:53:23;11.20;90.80
34989;DHT22;21192;40.182;44.516;2024-02-23T04:55:49;11.10;91.00
34989;DHT22;21192;40.182;44.516;2024-02-23T04:58:15;11.10;91.00
34989;DHT22;21192;40.182;44.516;2024-02-23T05:00:42;11.10;91.10
34989;DHT22;21192;40.182;44.516;2024-02-23T05:03:08;11.20;91.00
34989;DHT22;21192;40.182;44.516;2024-02-23T05:05:35;11.20;90.90
34989;DHT22;21192;40.182;44.516;2024-02-23T05:08:01;11.10;91.00
34989;DHT22;21192;40.182;44.516;2024-02-23T05:10:27;11.00;91.10
34989;DHT22;21192;40.182;44.516;2024-02-23T05:12:53;11.00;91.30
34989;DHT22;21192;40.182;44.516;2024-02-23T05:15:19;10.90;91.40
34989;DHT22;21192;40.182;44.516;2024-02-23T05:17:45;11.00;91.60
34989;DHT22;21192;40.182;44.516;2024-02-23T05:20:11;11.10;91.40
34989;DHT22;21192;40.182;44.516;2024-02-23T05:22:39;11.20;91.30
34989;DHT22;21192;40.182;44.516;2024-02-23T05:25:05;11.10;91.30
34989;DHT22;21192;40.182;44.516;2024-02-23T05:27:31;11.10;91.50
34989;DHT22;21192;40.182;44.516;2024-02-23T05:29:57;11.00;91.70
34989;DHT22;21192;40.182;44.516;2024-02-23T05:32:23;10.90;91.80
34989;DHT22;21192;40.182;44.516;2024-02-23T05:34:49;10.80;92.00
34989;DHT22;21192;40.182;44.516;2024-02-23T05:37:18;10.70;92.30
34989;DHT22;21192;40.182;44.516;2024-02-23T05:39:44;10.60;92.50
34989;DHT22;21192;40.182;44.516;2024-02-23T05:42:12;10.70;92.70
34989;DHT22;21192;40.182;44.516;2024-02-23T05:44:38;10.80;92.90
34989;DHT22;21192;40.182;44.516;2024-02-23T05:47:05;10.80;93.10
34989;DHT22;21192;40.182;44.516;2024-02-23T05:49:31;11.00;93.10
34989;DHT22;21192;40.182;44.516;2024-02-23T05:51:57;11.00;92.70
34989;DHT22;21192;40.182;44.516;2024-02-23T05:54:23;10.90;92.60
34989;DHT22;21192;40.182;44.516;2024-02-23T05:56:49;10.80;92.60
34989;DHT22;21192;40.182;44.516;2024-02-23T05:59:15;10.70;92.80
34989;DHT22;21192;40.182;44.516;2024-02-23T06:01:41;10.70;92.90
34989;DHT22;21192;40.182;44.516;2024-02-23T06:04:07;10.60;92.70
34989;DHT22;21192;40.182;44.516;2024-02-23T06:06:33;10.70;92.70
34989;DHT22;21192;40.182;44.516;2024-02-23T06:08:58;10.70;92.70
34989;DHT22;21192;40.182;44.516;2024-02-23T06:11:25;10.60;92.90
34989;DHT22;21192;40.182;44.516;2024-02-23T06:13:51;10.60;93.40
34989;DHT22;21192;40.182;44.516;2024-02-23T06:16:17;10.60;94.00
34989;DHT22;21192;40.182;44.516;2024-02-23T06:18:43;10.70;94.40
34989;DHT22;21192;40.182;44.516;2024-02-23T06:21:16;10.80;95.10
34989;DHT22;21192;40.182;44.516;2024-02-23T06:23:43;10.80;95.50
34989;DHT22;21192;40.182;44.516;2024-02-23T06:26:10;10.70;95.90
34989;DHT22;21192;40.182;44.516;2024-02-23T06:28:36;10.70;96.50
34989;DHT22;21192;40.182;44.516;2024-02-23T06:31:08;10.70;96.90
34989;DHT22;21192;40.182;44.516;2024-02-23T06:33:34;10.50;97.50
34989;DHT22;21192;40.182;44.516;2024-02-23T06:36:00;10.50;98.10
34989;DHT22;21192;40.182;44.516;2024-02-23T06:38:26;10.60;98.40
34989;DHT22;21192;40.182;44.516;2024-02-23T06:40:52;10.50;98.70
34989;DHT22;21192;40.182;44.516;2024-02-23T06:43:19;10.60;99.00
34989;DHT22;21192;40.182;44.516;2024-02-23T06:45:45;10.40;99.70
34989;DHT22;21192;40.182;44.516;2024-02-23T06:48:10;10.30;99.90
34989;DHT22;21192;40.182;44.516;2024-02-23T06:50:36;10.40;99.90
34989;DHT22;21192;40.182;44.516;2024-02-23T06:53:02;10.40;99.90
34989;DHT22;21192;40.182;44.516;2024-02-23T06:55:28;10.30;99.90
34989;DHT22;21192;40.182;44.516;2024-02-23T06:57:55;10.30;99.90
34989;DHT22;21192;40.182;44.516;2024-02-23T07:00:21;10.40;99.90
34989;DHT22;21192;40.182;44.516;2024-02-23T07:02:47;10.40;99.90
34989;DHT22;21192;40.182;44.516;2024-02-23T07:05:13;10.30;99.90
34989;DHT22;21192;40.182;44.516;2024-02-23T07:07:40;10.40;99.90
34989;DHT22;21192;40.182;44.516;2024-02-23T07:10:07;10.30;99.90
34989;DHT22;21192;40.182;44.516;2024-02-23T07:12:34;10.10;99.90
34989;DHT22;21192;40.182;44.516;2024-02-23T07:14:59;10.00;99.90
34989;DHT22;21192;40.182;44.516;2024-02-23T07:17:25;9.90;99.90
34989;DHT22;21192;40.182;44.516;2024-02-23T07:19:51;9.80;99.90
34989;DHT22;21192;40.182;44.516;2024-02-23T07:22:18;9.90;99.90
34989;DHT22;21192;40.182;44.516;2024-02-23T07:24:46;10.00;99.90
34989;DHT22;21192;40.182;44.516;2024-02-23T07:27:12;10.10;99.90
34989;DHT22;21192;40.182;44.516;2024-02-23T07:29:38;10.10;99.90
34989;DHT22;21192;40.182;44.516;2024-02-23T07:32:04;10.20;99.90
34989;DHT22;21192;40.182;44.516;2024-02-23T07:34:31;10.30;99.90
34989;DHT22;21192;40.182;44.516;2024-02-23T07:36:57;10.40;99.90
34989;DHT22;21192;40.182;44.516;2024-02-23T07:39:23;10.50;99.90
34989;DHT22;21192;40.182;44.516;2024-02-23T07:41:49;10.50;99.90
34989;DHT22;21192;40.182;44.516;2024-02-23T07:44:15;10.40;99.90
34989;DHT22;21192;40.182;44.516;2024-02-23T07:46:41;10.30;99.90
34989;DHT22;21192;40.182;44.516;2024-02-23T07:49:07;10.40;99.90
34989;DHT22;21192;40.182;44.516;2024-02-23T07:51:33;10.50;99.90
34989;DHT22;21192;40.182;44.516;2024-02-23T07:53:59;10.40;99.90
34989;DHT22;21192;40.182;44.516;2024-02-23T07:56:25;10.30;99.90
34989;DHT22;21192;40.182;44.516;2024-02-23T07:58:51;10.10;99.90
34989;DHT22;21192;40.182;44.516;2024-02-23T08:01:17;10.10;99.90
34989;DHT22;21192;40.182;44.516;2024-02-23T08:03:43;10.10;99.90
34989;DHT22;21192;40.182;44.516;2024-02-23T08:06:09;10.20;99.90
34989;DHT22;21192;40.182;44.516;2024-02-23T08:08:35;10.20;99.90
34989;DHT22;21192;40.182;44.516;2024-02-23T08:11:02;10.30;99.90
34989;DHT22;21192;40.182;44.516;2024-02-23T08:13:28;10.50;99.90
34989;DHT22;21192;40.182;44.516;2024-02-23T08:15:54;10.50;99.90
34989;DHT22;21192;40.182;44.516;2024-02-23T08:18:20;10.50;99.90
34989;DHT22;21192;40.182;44.516;2024-02-23T08:20:48;10.30;99.90
34989;DHT22;21192;40.182;44.516;2024-02-23T08:23:14;10.20;99.90
34989;DHT22;21192;40.182;44.516;2024-02-23T08:25:40;10.10;99.90
34989;DHT22;21192;40.182;44.516;2024-02-23T08:28:06;10.00;99.90
34989;DHT22;21192;40.182;44.516;2024-02-23T08:30:33;9.80;99.90
34989;DHT22;21192;40.182;44.516;2024-02-23T08:32:59;9.70;99.90
34989;DHT22;21192;40.182;44.516;2024-02-23T08:35:25;9.80;99.90
34989;DHT22;21192;40.182;44.516;2024-02-23T08:37:51;9.90;99.90
34989;DHT22;21192;40.182;44.516;2024-02-23T08:40:17;10.00;99.90
34989;DHT22;21192;40.182;44.516;2024-02-23T08:42:43;10.00;99.90
34989;DHT22;21192;40.182;44.516;2024-02-23T08:45:09;10.10;99.90
34989;DHT22;21192;40.182;44.516;2024-02-23T08:47:39;10.10;99.90
34989;DHT22;21192;40.182;44.516;2024-02-23T08:50:06;10.10;99.60
34989;DHT22;21192;40.182;44.516;2024-02-23T08:52:32;10.10;99.00
34989;DHT22;21192;40.182;44.516;2024-02-23T08:54:58;10.20;98.70
34989;DHT22;21192;40.182;44.516;2024-02-23T08:57:23;10.50;98.40
34989;DHT22;21192;40.182;44.516;2024-02-23T08:59:50;10.70;97.60
34989;DHT22;21192;40.182;44.516;2024-02-23T09:02:15;10.80;96.40
34989;DHT22;21192;40.182;44.516;2024-02-23T09:04:41;11.20;95.40
34989;DHT22;21192;40.182;44.516;2024-02-23T09:07:10;11.60;94.40
34989;DHT22;21192;40.182;44.516;2024-02-23T09:09:36;11.80;93.30
34989;DHT22;21192;40.182;44.516;2024-02-23T09:12:02;11.80;92.20
34989;DHT22;21192;40.182;44.516;2024-02-23T09:14:28;11.80;92.10
34989;DHT22;21192;40.182;44.516;2024-02-23T09:16:55;12.00;91.80
34989;DHT22;21192;40.182;44.516;2024-02-23T09:19:21;12.10;91.30
34989;DHT22;21192;40.182;44.516;2024-02-23T09:21:47;12.00;91.40
34989;DHT22;21192;40.182;44.516;2024-02-23T09:24:13;12.00;91.40
34989;DHT22;21192;40.182;44.516;2024-02-23T09:26:39;11.80;91.70
34989;DHT22;21192;40.182;44.516;2024-02-23T09:29:05;11.80;91.50
34989;DHT22;21192;40.182;44.516;2024-02-23T09:31:31;11.60;91.40
34989;DHT22;21192;40.182;44.516;2024-02-23T09:33:57;11.60;91.20
34989;DHT22;21192;40.182;44.516;2024-02-23T09:36:24;11.60;91.20
34989;DHT22;21192;40.182;44.516;2024-02-23T09:38:50;11.60;90.70
34989;DHT22;21192;40.182;44.516;2024-02-23T09:41:25;11.50;90.80
34989;DHT22;21192;40.182;44.516;2024-02-23T09:43:51;11.50;91.00
34989;DHT22;21192;40.182;44.516;2024-02-23T09:46:18;11.60;90.90
34989;DHT22;21192;40.182;44.516;2024-02-23T09:48:45;11.80;90.80
34989;DHT22;21192;40.182;44.516;2024-02-23T09:51:15;11.80;90.60
34989;DHT22;21192;40.182;44.516;2024-02-23T09:53:41;11.80;90.60
34989;DHT22;21192;40.182;44.516;2024-02-23T09:56:10;11.80;90.60
34989;DHT22;21192;40.182;44.516;2024-02-23T09:58:37;11.90;90.40
34989;DHT22;21192;40.182;44.516;2024-02-23T10:01:03;12.20;90.10
34989;DHT22;21192;40.182;44.516;2024-02-23T10:03:30;12.20;89.80
34989;DHT22;21192;40.182;44.516;2024-02-23T10:05:59;12.30;90.00
34989;DHT22;21192;40.182;44.516;2024-02-23T10:08:28;12.30;88.80
34989;DHT22;21192;40.182;44.516;2024-02-23T10:10:55;12.30;88.00
34989;DHT22;21192;40.182;44.516;2024-02-23T10:13:22;12.40;87.40
34989;DHT22;21192;40.182;44.516;2024-02-23T10:15:52;12.60;86.60
34989;DHT22;21192;40.182;44.516;2024-02-23T10:18:18;12.70;86.10
34989;DHT22;21192;40.182;44.516;2024-02-23T10:20:44;12.70;85.80
34989;DHT22;21192;40.182;44.516;2024-02-23T10:23:10;12.80;85.60
34989;DHT22;21192;40.182;44.516;2024-02-23T10:25:37;12.70;84.70
34989;DHT22;21192;40.182;44.516;2024-02-23T10:28:06;12.40;84.60
34989;DHT22;21192;40.182;44.516;2024-02-23T10:30:33;12.30;85.00
34989;DHT22;21192;40.182;44.516;2024-02-23T10:32:59;12.30;84.40
34989;DHT22;21192;40.182;44.516;2024-02-23T10:35:26;12.50;84.10
34989;DHT22;21192;40.182;44.516;2024-02-23T10:37:56;12.50;83.10
34989;DHT22;21192;40.182;44.516;2024-02-23T10:40:22;12.60;82.60
34989;DHT22;21192;40.182;44.516;2024-02-23T10:42:48;12.60;82.60
34989;DHT22;21192;40.182;44.516;2024-02-23T10:45:20;12.80;82.50
34989;DHT22;21192;40.182;44.516;2024-02-23T10:47:51;12.70;80.70
34989;DHT22;21192;40.182;44.516;2024-02-23T10:50:17;12.50;78.70
34989;DHT22;21192;40.182;44.516;2024-02-23T10:52:45;12.20;76.80
34989;DHT22;21192;40.182;44.516;2024-02-23T10:55:15;12.10;77.70
34989;DHT22;21192;40.182;44.516;2024-02-23T10:57:42;12.10;78.20
34989;DHT22;21192;40.182;44.516;2024-02-23T11:00:09;12.10;77.90
34989;DHT22;21192;40.182;44.516;2024-02-23T11:02:55;12.10;77.70
34989;DHT22;21192;40.182;44.516;2024-02-23T11:05:23;12.20;77.00
34989;DHT22;21192;40.182;44.516;2024-02-23T11:07:49;12.40;76.40
34989;DHT22;21192;40.182;44.516;2024-02-23T11:10:16;12.40;75.80
34989;DHT22;21192;40.182;44.516;2024-02-23T11:12:43;12.50;75.60
34989;DHT22;21192;40.182;44.516;2024-02-23T11:15:09;12.60;74.50
34989;DHT22;21192;40.182;44.516;2024-02-23T11:17:51;12.50;74.20
34989;DHT22;21192;40.182;44.516;2024-02-23T11:20:17;12.50;75.60
34989;DHT22;21192;40.182;44.516;2024-02-23T11:22:42;12.30;77.20
34989;DHT22;21192;40.182;44.516;2024-02-23T11:25:09;12.20;78.10
34989;DHT22;21192;40.182;44.516;2024-02-23T11:27:37;12.10;79.40
34989;DHT22;21192;40.182;44.516;2024-02-23T11:32:44;11.90;80.30
34989;DHT22;21192;40.182;44.516;2024-02-23T11:35:13;12.10;80.20
34989;DHT22;21192;40.182;44.516;2024-02-23T11:37:51;12.20;79.90
34989;DHT22;21192;40.182;44.516;2024-02-23T11:40:22;12.10;80.50
34989;DHT22;21192;40.182;44.516;2024-02-23T11:42:51;12.10;81.20
34989;DHT22;21192;40.182;44.516;2024-02-23T11:45:17;12.20;81.30
34989;DHT22;21192;40.182;44.516;2024-02-23T11:47:42;12.20;80.80
34989;DHT22;21192;40.182;44.516;2024-02-23T11:50:13;12.30;80.50
34989;DHT22;21192;40.182;44.516;2024-02-23T11:52:40;12.20;80.50
34989;DHT22;21192;40.182;44.516;2024-02-23T11:55:06;12.20;81.20
34989;DHT22;21192;40.182;44.516;2024-02-23T11:57:34;12.00;82.20
34989;DHT22;21192;40.182;44.516;2024-02-23T12:00:06;12.00;82.20
34989;DHT22;21192;40.182;44.516;2024-02-23T12:02:35;12.10;82.50
34989;DHT22;21192;40.182;44.516;2024-02-23T12:05:01;12.20;82.40
34989;DHT22;21192;40.182;44.516;2024-02-23T12:07:29;12.30;81.60
34989;DHT22;21192;40.182;44.516;2024-02-23T12:09:56;12.30;81.80
34989;DHT22;21192;40.182;44.516;2024-02-23T12:12:23;12.30;80.80
34989;DHT22;21192;40.182;44.516;2024-02-23T12:14:49;12.30;80.70
34989;DHT22;21192;40.182;44.516;2024-02-23T12:17:16;12.30;81.20
34989;DHT22;21192;40.182;44.516;2024-02-23T12:19:42;12.40;81.30
34989;DHT22;21192;40.182;44.516;2024-02-23T12:22:09;12.50;81.00
34989;DHT22;21192;40.182;44.516;2024-02-23T12:24:35;12.50;80.80
34989;DHT22;21192;40.182;44.516;2024-02-23T12:27:01;12.20;81.90
34989;DHT22;21192;40.182;44.516;2024-02-23T12:29:28;12.10;83.10
34989;DHT22;21192;40.182;44.516;2024-02-23T12:32:06;11.90;84.50
34989;DHT22;21192;40.182;44.516;2024-02-23T12:34:33;11.60;86.20
34989;DHT22;21192;40.182;44.516;2024-02-23T12:37:02;11.30;87.40
34989;DHT22;21192;40.182;44.516;2024-02-23T12:39:29;11.20;88.70
34989;DHT22;21192;40.182;44.516;2024-02-23T12:41:54;11.10;89.70
34989;DHT22;21192;40.182;44.516;2024-02-23T12:44:22;11.00;90.10
34989;DHT22;21192;40.182;44.516;2024-02-23T12:46:48;11.00;90.30
34989;DHT22;21192;40.182;44.516;2024-02-23T12:49:14;11.00;90.70
34989;DHT22;21192;40.182;44.516;2024-02-23T12:51:41;11.00;90.80
34989;DHT22;21192;40.182;44.516;2024-02-23T12:54:07;11.10;91.10
34989;DHT22;21192;40.182;44.516;2024-02-23T12:56:33;11.20;91.10
34989;DHT22;21192;40.182;44.516;2024-02-23T12:58:59;11.30;90.90
34989;DHT22;21192;40.182;44.516;2024-02-23T13:01:25;11.20;90.40
34989;DHT22;21192;40.182;44.516;2024-02-23T13:03:51;11.00;90.40
34989;DHT22;21192;40.182;44.516;2024-02-23T13:06:17;10.90;90.60
34989;DHT22;21192;40.182;44.516;2024-02-23T13:08:43;10.80;91.10
34989;DHT22;21192;40.182;44.516;2024-02-23T13:11:09;10.70;91.50
34989;DHT22;21192;40.182;44.516;2024-02-23T13:13:35;10.70;91.70
34989;DHT22;21192;40.182;44.516;2024-02-23T13:16:01;10.60;91.70
34989;DHT22;21192;40.182;44.516;2024-02-23T13:18:27;10.60;91.90
34989;DHT22;21192;40.182;44.516;2024-02-23T13:20:52;10.70;91.80
34989;DHT22;21192;40.182;44.516;2024-02-23T13:23:18;10.70;91.70
34989;DHT22;21192;40.182;44.516;2024-02-23T13:25:45;10.70;91.70
34989;DHT22;21192;40.182;44.516;2024-02-23T13:28:11;10.80;91.60
34989;DHT22;21192;40.182;44.516;2024-02-23T13:30:37;10.90;91.50
34989;DHT22;21192;40.182;44.516;2024-02-23T13:33:05;10.80;91.50
34989;DHT22;21192;40.182;44.516;2024-02-23T13:35:31;10.80;91.70
34989;DHT22;21192;40.182;44.516;2024-02-23T13:37:57;10.80;91.40
34989;DHT22;21192;40.182;44.516;2024-02-23T13:40:24;10.90;91.20
34989;DHT22;21192;40.182;44.516;2024-02-23T13:42:50;10.90;91.10
34989;DHT22;21192;40.182;44.516;2024-02-23T13:45:18;10.80;91.10
34989;DHT22;21192;40.182;44.516;2024-02-23T13:47:56;10.80;91.10
34989;DHT22;21192;40.182;44.516;2024-02-23T13:50:22;10.80;91.10
34989;DHT22;21192;40.182;44.516;2024-02-23T13:52:48;10.90;91.10
34989;DHT22;21192;40.182;44.516;2024-02-23T13:55:14;11.00;91.00
34989;DHT22;21192;40.182;44.516;2024-02-23T13:57:40;11.00;90.90
34989;DHT22;21192;40.182;44.516;2024-02-23T14:00:07;11.00;91.00
34989;DHT22;21192;40.182;44.516;2024-02-23T14:02:38;11.10;90.90
34989;DHT22;21192;40.182;44.516;2024-02-23T14:05:06;11.20;90.60
34989;DHT22;21192;40.182;44.516;2024-02-23T14:07:33;11.20;90.30
34989;DHT22;21192;40.182;44.516;2024-02-23T14:09:59;11.30;90.00
34989;DHT22;21192;40.182;44.516;2024-02-23T14:12:25;11.40;89.60
34989;DHT22;21192;40.182;44.516;2024-02-23T14:14:51;11.40;89.30
34989;DHT22;21192;40.182;44.516;2024-02-23T14:17:17;11.40;89.00
34989;DHT22;21192;40.182;44.516;2024-02-23T14:19:43;11.40;88.50
34989;DHT22;21192;40.182;44.516;2024-02-23T14:22:09;11.40;88.40
34989;DHT22;21192;40.182;44.516;2024-02-23T14:24:35;11.50;88.30
34989;DHT22;21192;40.182;44.516;2024-02-23T14:27:01;11.40;87.80
34989;DHT22;21192;40.182;44.516;2024-02-23T14:29:27;11.20;88.20
34989;DHT22;21192;40.182;44.516;2024-02-23T14:31:53;11.10;89.10
34989;DHT22;21192;40.182;44.516;2024-02-23T14:34:19;10.90;90.20
34989;DHT22;21192;40.182;44.516;2024-02-23T14:36:46;10.70;91.10
34989;DHT22;21192;40.182;44.516;2024-02-23T14:39:12;10.60;91.90
34989;DHT22;21192;40.182;44.516;2024-02-23T14:41:39;10.40;92.80
34989;DHT22;21192;40.182;44.516;2024-02-23T14:44:05;10.40;93.40
34989;DHT22;21192;40.182;44.516;2024-02-23T14:46:30;10.40;93.80
34989;DHT22;21192;40.182;44.516;2024-02-23T14:48:56;10.40;94.00
34989;DHT22;21192;40.182;44.516;2024-02-23T14:51:22;10.30;94.30
34989;DHT22;21192;40.182;44.516;2024-02-23T14:53:48;10.30;94.60
34989;DHT22;21192;40.182;44.516;2024-02-23T14:56:14;10.40;94.60
34989;DHT22;21192;40.182;44.516;2024-02-23T14:58:40;10.40;94.80
34989;DHT22;21192;40.182;44.516;2024-02-23T15:01:06;10.50;95.00
34989;DHT22;21192;40.182;44.516;2024-02-23T15:03:32;10.50;95.10
34989;DHT22;21192;40.182;44.516;2024-02-23T15:05:59;10.50;95.50
34989;DHT22;21192;40.182;44.516;2024-02-23T15:08:27;10.40;95.70
34989;DHT22;21192;40.182;44.516;2024-02-23T15:10:53;10.50;96.00
34989;DHT22;21192;40.182;44.516;2024-02-23T15:13:19;10.50;96.10
34989;DHT22;21192;40.182;44.516;2024-02-23T15:15:45;10.60;96.20